Carmen — SMGW — position and weather

sailwx.info

Track history (hours):
 
Tides and Currents Weather Stations Pressure Air Temp Water Temp Dewpoint Dewpoint Depression Visibility Wind Speed Wind Dir Waves Ship Positions

Carmen

Last reported at 2014-Oct-02 12:00 UTC. Time now 2014-Oct-02 14:43 UTC.
Position N 46°48' W 028°30'.

Length 228 m; draft 10.3 m.

Type: Cargo ship. MMSI: 266339000.

Wind from 210 at 29 knots

Waves 2.5 meters (8 feet), 6 second period

Barometer 1018.1 mb
Air temperature 17.6 ° C
Visibility: greater than 5.4 NM
Water temperature 17.0 ° C

Date/timePositionNaut miles runAvg speedWind from/ knotsBaromVisibWave heightAir tempDewpointWater temp
2014-Oct-02 12:00N 46°48' W 028°30'7011.7 210 / 291018.1 5.4 2.517.6 17.0
2014-Oct-02 06:00N 46°42' W 026°48'7412.3 200 / 311020.010.8 17.0
2014-Oct-02 00:00N 46°42' W 025°00'7512.5 190 / 231026.010.8 16.8 17.8
2014-Oct-01 18:00N 46°54' W 023°12'7712.9 190 / 121029.610.8 1.015.9 18.4
2014-Oct-01 12:00N 47°18' W 021°24'9015.0 050 / 61031.610.8 2.515.6 17.9
2014-Oct-01 06:00N 47°30' W 019°12'15913.2 010 / 161027.910.8 15.5 18.0
2014-Sep-30 18:00N 48°12' W 015°24'8313.9 240 / 161021.310.8 1.018.4 19.2
2014-Sep-30 12:00N 48°36' W 013°24'8514.2 860 / 411021.510.8 0.518.5 18.6
2014-Sep-30 06:00N 48°54' W 011°18'15312.8 190 / 271016.7 5.4 18.1 18.5
2014-Sep-29 18:00N 49°30' W 007°30'8413.9 200 / 121020.110.8 1.017.1 18.1
2014-Sep-29 12:00N 49°48' W 005°24'8414.1 1021.110.8 16.3 16.9
2014-Sep-29 06:00N 50°12' W 003°18'3915.9 160 / 41019.7 2.2 16.1 16.8
2014-Sep-29 03:33N 50°21' W 002°19'1716.6
2014-Sep-29 02:31N 50°25' W 001°53'1515.3
2014-Sep-29 01:33N 50°29' W 001°30'1413.7
2014-Sep-29 00:33N 50°32' W 001°10'1010.5
2014-Sep-28 23:33N 50°39' W 000°58'10 9.9
2014-Sep-28 22:34N 50°46' W 001°10'8 8.3
2014-Sep-28 21:34N 50°51' W 001°20'3 2.8
2014-Sep-28 20:31N 50°53' W 001°24'0 0.0
2014-Sep-28 19:31N 50°53' W 001°24'0 0.0
2014-Sep-28 18:28N 50°53' W 001°24'0 0.0
2014-Sep-28 17:31N 50°53' W 001°24'0 0.0
2014-Sep-28 16:31N 50°53' W 001°24'0 0.0
2014-Sep-28 15:31N 50°53' W 001°24'0 0.0
2014-Sep-28 14:31N 50°53' W 001°24'0 0.0
2014-Sep-28 13:31N 50°53' W 001°24'0 0.0
2014-Sep-28 12:31N 50°53' W 001°24'0 0.0
2014-Sep-28 11:31N 50°53' W 001°24'0 0.0
2014-Sep-28 10:31N 50°53' W 001°24'0 0.0
2014-Sep-28 09:31N 50°53' W 001°24'0 0.3
2014-Sep-28 08:33N 50°53' W 001°24'7 6.8
2014-Sep-28 07:33N 50°47' W 001°19'1414.1
2014-Sep-28 06:33N 50°42' W 000°58'9 9.0
2014-Sep-28 05:33N 50°37' W 000°46'4 4.4
2014-Sep-28 04:33N 50°36' W 000°39'7 7.4
2014-Sep-28 03:33N 50°35' W 000°28'8 7.9
2014-Sep-28 02:33N 50°33' W 000°15'1010.1
2014-Sep-28 01:33N 50°33' E 000°00'1615.9
2014-Sep-28 00:34N 50°36' E 000°25'1615.6
2014-Sep-27 23:34N 50°44' E 000°46'1616.1
2014-Sep-27 22:33N 50°54' E 001°06'1918.6
2014-Sep-27 21:33N 51°06' E 001°29'2019.6
2014-Sep-27 20:33N 51°19' E 001°52'1414.0
2014-Sep-27 19:33N 51°20' E 002°14'1717.3
2014-Sep-27 18:33N 51°22' E 002°42'1615.6
2014-Sep-27 17:33N 51°24' E 003°06'6 5.7
2014-Sep-27 16:33N 51°20' E 003°13'1 1.0
2014-Sep-27 15:29N 51°19' E 003°14'0 0.0
2014-Sep-27 14:29N 51°19' E 003°14'0 0.0
2014-Sep-27 13:32N 51°19' E 003°14'0 0.0
2014-Sep-27 12:26N 51°19' E 003°14'0 0.0
2014-Sep-27 11:26N 51°19' E 003°14'0 0.0
2014-Sep-27 10:32N 51°19' E 003°14'0 0.0
2014-Sep-27 09:32N 51°19' E 003°14'0 0.0
2014-Sep-27 08:32N 51°19' E 003°14'0 0.0
2014-Sep-27 07:20N 51°19' E 003°14'0 0.0
2014-Sep-27 06:29N 51°19' E 003°14'0 0.0
2014-Sep-27 05:32N 51°19' E 003°14'0 0.0
2014-Sep-27 04:26N 51°19' E 003°14'0 0.0
2014-Sep-27 03:32N 51°19' E 003°14'0 0.0
2014-Sep-27 02:32N 51°19' E 003°14'1 1.0
2014-Sep-27 01:33N 51°20' E 003°13'2 2.2
2014-Sep-27 00:33N 51°22' E 003°11'1615.7
2014-Sep-26 23:30N 51°22' E 002°45'1111.4
2014-Sep-26 22:33N 51°33' E 002°42'1414.2
2014-Sep-26 21:33N 51°47' E 002°43'10312.3
2014-Sep-26 13:11N 53°10' E 004°24'913.6
2014-Sep-26 12:32N 53°18' E 004°30'713.4
2014-Sep-26 12:00N 53°24' E 004°36'613.1 290 / 231019.210.8 1.017.3 17.7
2014-Sep-26 11:33N 53°29' E 004°40'1212.5
2014-Sep-26 10:33N 53°34' E 004°60'1211.7
2014-Sep-26 09:33N 53°38' E 005°19'1111.0
2014-Sep-26 08:33N 53°41' E 005°36'1111.0
2014-Sep-26 07:33N 53°45' E 005°54'1111.2
2014-Sep-26 06:33N 53°48' E 006°12'1118.9
2014-Sep-26 06:00N 53°48' E 006°30'4111.9 280 / 171016.810.8 16.9 17.2
2014-Sep-26 02:33N 53°59' E 007°37'1312.9
2014-Sep-26 01:33N 53°52' E 007°55'1817.8
2014-Sep-26 00:34N 53°42' E 008°20'1111.2
2014-Sep-25 23:33N 53°34' E 008°33'1 0.9
2014-Sep-25 22:33N 53°35' E 008°33'0 0.0
2014-Sep-25 21:31N 53°35' E 008°33'0 0.0
2014-Sep-25 20:31N 53°35' E 008°33'0 0.0
2014-Sep-25 19:31N 53°35' E 008°33'0 0.0
2014-Sep-25 18:31N 53°35' E 008°33'0 0.0
2014-Sep-25 17:31N 53°35' E 008°33'0 0.0
2014-Sep-25 16:31N 53°35' E 008°33'0 0.0
2014-Sep-25 15:31N 53°35' E 008°33'0 0.0
2014-Sep-25 14:31N 53°35' E 008°33'0 0.0
2014-Sep-25 13:31N 53°35' E 008°33'0 0.0
2014-Sep-25 12:31N 53°35' E 008°33'0 0.0
2014-Sep-25 11:31N 53°35' E 008°33'0 0.0
2014-Sep-25 10:31N 53°35' E 008°33'0 0.0
2014-Sep-25 09:31N 53°35' E 008°33'0 0.0
2014-Sep-25 08:31N 53°35' E 008°33'0 0.0
2014-Sep-25 07:31N 53°35' E 008°33'0 0.0
2014-Sep-25 06:31N 53°35' E 008°33'0 0.0
2014-Sep-25 05:31N 53°35' E 008°33'0 0.0
2014-Sep-25 04:31N 53°35' E 008°33'0 0.0
2014-Sep-25 03:31N 53°35' E 008°33'0 0.0
2014-Sep-25 02:31N 53°35' E 008°33'0 0.0
2014-Sep-25 01:31N 53°35' E 008°33'0 0.0
2014-Sep-25 00:31N 53°35' E 008°33'1 1.2
2014-Sep-24 23:31N 53°34' E 008°34'0 0.4
2014-Sep-24 22:33N 53°33' E 008°34'8 7.6
2014-Sep-24 21:34N 53°39' E 008°25'1716.9
2014-Sep-24 20:33N 53°50' E 008°04'56 6.9
2014-Sep-24 12:31N 53°46' E 006°29'7 6.7
2014-Sep-24 11:30N 53°44' E 006°18'7 7.3
2014-Sep-24 10:33N 53°42' E 006°07'8 7.7
2014-Sep-24 09:33N 53°40' E 005°55'8 8.1
2014-Sep-24 08:33N 53°37' E 005°42'8 8.1
2014-Sep-24 07:34N 53°35' E 005°29'9 8.6
2014-Sep-24 06:34N 53°32' E 005°15'1413.6
2014-Sep-24 05:33N 53°27' E 004°54'1413.6
2014-Sep-24 04:32N 53°17' E 004°38'2914.6
2014-Sep-24 02:33N 52°51' E 004°15'3614.2
2014-Sep-24 00:00N 52°24' E 003°36'5910.8 230 / 141014.610.8 16.4 18.2
2014-Sep-23 18:33N 51°35' E 002°43'1212.5
2014-Sep-23 17:33N 51°23' E 002°45'1515.2
2014-Sep-23 16:33N 51°24' E 003°09'4 4.1
2014-Sep-23 15:30N 51°20' E 003°13'1 1.2
2014-Sep-23 14:33N 51°19' E 003°14'0 0.0
2014-Sep-23 13:33N 51°19' E 003°14'0 0.0
2014-Sep-23 12:33N 51°19' E 003°14'0 0.0
2014-Sep-23 11:30N 51°19' E 003°14'0 0.0
2014-Sep-23 10:33N 51°19' E 003°14'0 0.0
2014-Sep-23 09:15N 51°19' E 003°14'0 0.0
2014-Sep-23 08:21N 51°19' E 003°14'0 0.0
2014-Sep-23 07:33N 51°19' E 003°14'0 0.0
2014-Sep-23 06:33N 51°19' E 003°14'0 0.0
2014-Sep-23 05:33N 51°19' E 003°14'0 0.0
2014-Sep-23 04:30N 51°19' E 003°14'0 0.0
2014-Sep-23 03:33N 51°19' E 003°14'0 0.0
2014-Sep-23 02:33N 51°19' E 003°14'0 0.0
2014-Sep-23 01:30N 51°19' E 003°14'0 0.0
2014-Sep-23 00:15N 51°19' E 003°14'0 0.0
2014-Sep-22 23:27N 51°19' E 003°14'0 0.0
2014-Sep-22 22:21N 51°19' E 003°14'0 0.0
2014-Sep-22 20:21N 51°19' E 003°14'0 0.0
2014-Sep-22 19:30N 51°19' E 003°14'0 0.0
2014-Sep-22 18:33N 51°19' E 003°14'0 0.0
2014-Sep-22 17:33N 51°19' E 003°14'0 0.5
2014-Sep-22 16:32N 51°19' E 003°14'0 0.0
2014-Sep-22 15:32N 51°19' E 003°14'0 0.0
2014-Sep-22 14:32N 51°19' E 003°14'0 0.0
2014-Sep-22 13:32N 51°19' E 003°14'0 0.0
2014-Sep-22 12:32N 51°19' E 003°14'  
Track history (hours):
 
Tides and Currents Weather Stations Pressure Air Temp Water Temp Dewpoint Dewpoint Depression Visibility Wind Speed Wind Dir Waves Ship Positions

Carmen

Last reported at 2014-Oct-02 12:00 UTC. Time now 2014-Oct-02 14:43 UTC.
Position N 46°48' W 028°30'.

Length 228 m; draft 10.3 m.

Type: Cargo ship. MMSI: 266339000.

Wind from 210 at 29 knots

Waves 2.5 meters (8 feet), 6 second period

Barometer 1018.1 mb
Air temperature 17.6 ° C
Visibility: greater than 5.4 NM
Water temperature 17.0 ° C

Date/timePositionNaut miles runAvg speedWind from/ knotsBaromVisibWave heightAir tempDewpointWater temp
2014-Oct-02 12:00N 46°48' W 028°30'7011.7 210 / 291018.1 5.4 2.517.6 17.0
2014-Oct-02 06:00N 46°42' W 026°48'7412.3 200 / 311020.010.8 17.0
2014-Oct-02 00:00N 46°42' W 025°00'7512.5 190 / 231026.010.8 16.8 17.8
2014-Oct-01 18:00N 46°54' W 023°12'7712.9 190 / 121029.610.8 1.015.9 18.4
2014-Oct-01 12:00N 47°18' W 021°24'9015.0 050 / 61031.610.8 2.515.6 17.9
2014-Oct-01 06:00N 47°30' W 019°12'15913.2 010 / 161027.910.8 15.5 18.0
2014-Sep-30 18:00N 48°12' W 015°24'8313.9 240 / 161021.310.8 1.018.4 19.2
2014-Sep-30 12:00N 48°36' W 013°24'8514.2 860 / 411021.510.8 0.518.5 18.6
2014-Sep-30 06:00N 48°54' W 011°18'15312.8 190 / 271016.7 5.4 18.1 18.5
2014-Sep-29 18:00N 49°30' W 007°30'8413.9 200 / 121020.110.8 1.017.1 18.1
2014-Sep-29 12:00N 49°48' W 005°24'8414.1 1021.110.8 16.3 16.9
2014-Sep-29 06:00N 50°12' W 003°18'3915.9 160 / 41019.7 2.2 16.1 16.8
2014-Sep-29 03:33N 50°21' W 002°19'1716.6
2014-Sep-29 02:31N 50°25' W 001°53'1515.3
2014-Sep-29 01:33N 50°29' W 001°30'1413.7
2014-Sep-29 00:33N 50°32' W 001°10'1010.5
2014-Sep-28 23:33N 50°39' W 000°58'10 9.9
2014-Sep-28 22:34N 50°46' W 001°10'8 8.3
2014-Sep-28 21:34N 50°51' W 001°20'3 2.8
2014-Sep-28 20:31N 50°53' W 001°24'0 0.0
2014-Sep-28 19:31N 50°53' W 001°24'0 0.0
2014-Sep-28 18:28N 50°53' W 001°24'0 0.0
2014-Sep-28 17:31N 50°53' W 001°24'0 0.0
2014-Sep-28 16:31N 50°53' W 001°24'0 0.0
2014-Sep-28 15:31N 50°53' W 001°24'0 0.0
2014-Sep-28 14:31N 50°53' W 001°24'0 0.0
2014-Sep-28 13:31N 50°53' W 001°24'0 0.0
2014-Sep-28 12:31N 50°53' W 001°24'0 0.0
2014-Sep-28 11:31N 50°53' W 001°24'0 0.0
2014-Sep-28 10:31N 50°53' W 001°24'0 0.0
2014-Sep-28 09:31N 50°53' W 001°24'0 0.3
2014-Sep-28 08:33N 50°53' W 001°24'7 6.8
2014-Sep-28 07:33N 50°47' W 001°19'1414.1
2014-Sep-28 06:33N 50°42' W 000°58'9 9.0
2014-Sep-28 05:33N 50°37' W 000°46'4 4.4
2014-Sep-28 04:33N 50°36' W 000°39'7 7.4
2014-Sep-28 03:33N 50°35' W 000°28'8 7.9
2014-Sep-28 02:33N 50°33' W 000°15'1010.1
2014-Sep-28 01:33N 50°33' E 000°00'1615.9
2014-Sep-28 00:34N 50°36' E 000°25'1615.6
2014-Sep-27 23:34N 50°44' E 000°46'1616.1
2014-Sep-27 22:33N 50°54' E 001°06'1918.6
2014-Sep-27 21:33N 51°06' E 001°29'2019.6
2014-Sep-27 20:33N 51°19' E 001°52'1414.0
2014-Sep-27 19:33N 51°20' E 002°14'1717.3
2014-Sep-27 18:33N 51°22' E 002°42'1615.6
2014-Sep-27 17:33N 51°24' E 003°06'6 5.7
2014-Sep-27 16:33N 51°20' E 003°13'1 1.0
2014-Sep-27 15:29N 51°19' E 003°14'0 0.0
2014-Sep-27 14:29N 51°19' E 003°14'0 0.0
2014-Sep-27 13:32N 51°19' E 003°14'0 0.0
2014-Sep-27 12:26N 51°19' E 003°14'0 0.0
2014-Sep-27 11:26N 51°19' E 003°14'0 0.0
2014-Sep-27 10:32N 51°19' E 003°14'0 0.0
2014-Sep-27 09:32N 51°19' E 003°14'0 0.0
2014-Sep-27 08:32N 51°19' E 003°14'0 0.0
2014-Sep-27 07:20N 51°19' E 003°14'0 0.0
2014-Sep-27 06:29N 51°19' E 003°14'0 0.0
2014-Sep-27 05:32N 51°19' E 003°14'0 0.0
2014-Sep-27 04:26N 51°19' E 003°14'0 0.0
2014-Sep-27 03:32N 51°19' E 003°14'0 0.0
2014-Sep-27 02:32N 51°19' E 003°14'1 1.0
2014-Sep-27 01:33N 51°20' E 003°13'2 2.2
2014-Sep-27 00:33N 51°22' E 003°11'1615.7
2014-Sep-26 23:30N 51°22' E 002°45'1111.4
2014-Sep-26 22:33N 51°33' E 002°42'1414.2
2014-Sep-26 21:33N 51°47' E 002°43'10312.3
2014-Sep-26 13:11N 53°10' E 004°24'913.6
2014-Sep-26 12:32N 53°18' E 004°30'713.4
2014-Sep-26 12:00N 53°24' E 004°36'613.1 290 / 231019.210.8 1.017.3 17.7
2014-Sep-26 11:33N 53°29' E 004°40'1212.5
2014-Sep-26 10:33N 53°34' E 004°60'1211.7
2014-Sep-26 09:33N 53°38' E 005°19'1111.0
2014-Sep-26 08:33N 53°41' E 005°36'1111.0
2014-Sep-26 07:33N 53°45' E 005°54'1111.2
2014-Sep-26 06:33N 53°48' E 006°12'1118.9
2014-Sep-26 06:00N 53°48' E 006°30'4111.9 280 / 171016.810.8 16.9 17.2
2014-Sep-26 02:33N 53°59' E 007°37'1312.9
2014-Sep-26 01:33N 53°52' E 007°55'1817.8
2014-Sep-26 00:34N 53°42' E 008°20'1111.2
2014-Sep-25 23:33N 53°34' E 008°33'1 0.9
2014-Sep-25 22:33N 53°35' E 008°33'0 0.0
2014-Sep-25 21:31N 53°35' E 008°33'0 0.0
2014-Sep-25 20:31N 53°35' E 008°33'0 0.0
2014-Sep-25 19:31N 53°35' E 008°33'0 0.0
2014-Sep-25 18:31N 53°35' E 008°33'0 0.0
2014-Sep-25 17:31N 53°35' E 008°33'0 0.0
2014-Sep-25 16:31N 53°35' E 008°33'0 0.0
2014-Sep-25 15:31N 53°35' E 008°33'0 0.0
2014-Sep-25 14:31N 53°35' E 008°33'0 0.0
2014-Sep-25 13:31N 53°35' E 008°33'0 0.0
2014-Sep-25 12:31N 53°35' E 008°33'0 0.0
2014-Sep-25 11:31N 53°35' E 008°33'0 0.0
2014-Sep-25 10:31N 53°35' E 008°33'0 0.0
2014-Sep-25 09:31N 53°35' E 008°33'0 0.0
2014-Sep-25 08:31N 53°35' E 008°33'0 0.0
2014-Sep-25 07:31N 53°35' E 008°33'0 0.0
2014-Sep-25 06:31N 53°35' E 008°33'0 0.0
2014-Sep-25 05:31N 53°35' E 008°33'0 0.0
2014-Sep-25 04:31N 53°35' E 008°33'0 0.0
2014-Sep-25 03:31N 53°35' E 008°33'0 0.0
2014-Sep-25 02:31N 53°35' E 008°33'0 0.0
2014-Sep-25 01:31N 53°35' E 008°33'0 0.0
2014-Sep-25 00:31N 53°35' E 008°33'1 1.2
2014-Sep-24 23:31N 53°34' E 008°34'0 0.4
2014-Sep-24 22:33N 53°33' E 008°34'8 7.6
2014-Sep-24 21:34N 53°39' E 008°25'1716.9
2014-Sep-24 20:33N 53°50' E 008°04'56 6.9
2014-Sep-24 12:31N 53°46' E 006°29'7 6.7
2014-Sep-24 11:30N 53°44' E 006°18'7 7.3
2014-Sep-24 10:33N 53°42' E 006°07'8 7.7
2014-Sep-24 09:33N 53°40' E 005°55'8 8.1
2014-Sep-24 08:33N 53°37' E 005°42'8 8.1
2014-Sep-24 07:34N 53°35' E 005°29'9 8.6
2014-Sep-24 06:34N 53°32' E 005°15'1413.6
2014-Sep-24 05:33N 53°27' E 004°54'1413.6
2014-Sep-24 04:32N 53°17' E 004°38'2914.6
2014-Sep-24 02:33N 52°51' E 004°15'3614.2
2014-Sep-24 00:00N 52°24' E 003°36'5910.8 230 / 141014.610.8 16.4 18.2
2014-Sep-23 18:33N 51°35' E 002°43'1212.5
2014-Sep-23 17:33N 51°23' E 002°45'1515.2
2014-Sep-23 16:33N 51°24' E 003°09'4 4.1
2014-Sep-23 15:30N 51°20' E 003°13'1 1.2
2014-Sep-23 14:33N 51°19' E 003°14'0 0.0
2014-Sep-23 13:33N 51°19' E 003°14'0 0.0
2014-Sep-23 12:33N 51°19' E 003°14'0 0.0
2014-Sep-23 11:30N 51°19' E 003°14'0 0.0
2014-Sep-23 10:33N 51°19' E 003°14'0 0.0
2014-Sep-23 09:15N 51°19' E 003°14'0 0.0
2014-Sep-23 08:21N 51°19' E 003°14'0 0.0
2014-Sep-23 07:33N 51°19' E 003°14'0 0.0
2014-Sep-23 06:33N 51°19' E 003°14'0 0.0
2014-Sep-23 05:33N 51°19' E 003°14'0 0.0
2014-Sep-23 04:30N 51°19' E 003°14'0 0.0
2014-Sep-23 03:33N 51°19' E 003°14'0 0.0
2014-Sep-23 02:33N 51°19' E 003°14'0 0.0
2014-Sep-23 01:30N 51°19' E 003°14'0 0.0
2014-Sep-23 00:15N 51°19' E 003°14'0 0.0
2014-Sep-22 23:27N 51°19' E 003°14'0 0.0
2014-Sep-22 22:21N 51°19' E 003°14'0 0.0
2014-Sep-22 20:21N 51°19' E 003°14'0 0.0
2014-Sep-22 19:30N 51°19' E 003°14'0 0.0
2014-Sep-22 18:33N 51°19' E 003°14'0 0.0
2014-Sep-22 17:33N 51°19' E 003°14'0 0.5
2014-Sep-22 16:32N 51°19' E 003°14'0 0.0
2014-Sep-22 15:32N 51°19' E 003°14'0 0.0
2014-Sep-22 14:32N 51°19' E 003°14'0 0.0
2014-Sep-22 13:32N 51°19' E 003°14'0 0.0
2014-Sep-22 12:32N 51°19' E 003°14'  

Dump ship's entire track history